sensor_id;sensor_type;location;lat;lon;timestamp;temperature;humidity
26964;DHT22;14521;48.148;-1.656;2023-10-31T00:01:54;19.00;99.70
26964;DHT22;14521;48.148;-1.656;2023-10-31T00:05:17;19.00;99.60
26964;DHT22;14521;48.148;-1.656;2023-10-31T00:08:42;19.00;99.60
26964;DHT22;14521;48.148;-1.656;2023-10-31T00:12:05;19.00;99.60
26964;DHT22;14521;48.148;-1.656;2023-10-31T00:15:27;19.00;99.60
26964;DHT22;14521;48.148;-1.656;2023-10-31T00:18:52;19.00;99.50
26964;DHT22;14521;48.148;-1.656;2023-10-31T00:22:14;19.00;99.50
26964;DHT22;14521;48.148;-1.656;2023-10-31T00:25:36;19.00;99.50
26964;DHT22;14521;48.148;-1.656;2023-10-31T00:28:59;19.00;99.50
26964;DHT22;14521;48.148;-1.656;2023-10-31T00:32:21;19.00;99.50
26964;DHT22;14521;48.148;-1.656;2023-10-31T00:35:43;19.00;99.50
26964;DHT22;14521;48.148;-1.656;2023-10-31T00:39:06;19.00;99.50
26964;DHT22;14521;48.148;-1.656;2023-10-31T00:42:28;18.90;99.40
26964;DHT22;14521;48.148;-1.656;2023-10-31T00:45:50;18.90;99.40
26964;DHT22;14521;48.148;-1.656;2023-10-31T00:49:12;18.90;99.40
26964;DHT22;14521;48.148;-1.656;2023-10-31T00:52:35;18.90;99.30
26964;DHT22;14521;48.148;-1.656;2023-10-31T00:55:58;18.90;99.60
26964;DHT22;14521;48.148;-1.656;2023-10-31T00:59:21;19.00;99.30
26964;DHT22;14521;48.148;-1.656;2023-10-31T01:02:44;18.90;99.20
26964;DHT22;14521;48.148;-1.656;2023-10-31T01:06:06;18.90;99.20
26964;DHT22;14521;48.148;-1.656;2023-10-31T01:09:28;19.00;99.30
26964;DHT22;14521;48.148;-1.656;2023-10-31T01:12:51;18.90;99.20
26964;DHT22;14521;48.148;-1.656;2023-10-31T01:16:13;18.90;99.30
26964;DHT22;14521;48.148;-1.656;2023-10-31T01:19:35;18.90;99.20
26964;DHT22;14521;48.148;-1.656;2023-10-31T01:22:58;18.90;99.20
26964;DHT22;14521;48.148;-1.656;2023-10-31T01:26:20;18.90;99.20
26964;DHT22;14521;48.148;-1.656;2023-10-31T01:29:42;18.90;99.20
26964;DHT22;14521;48.148;-1.656;2023-10-31T01:33:04;18.90;99.20
26964;DHT22;14521;48.148;-1.656;2023-10-31T01:36:27;18.90;99.20
26964;DHT22;14521;48.148;-1.656;2023-10-31T01:39:49;18.90;99.10
26964;DHT22;14521;48.148;-1.656;2023-10-31T01:43:11;18.90;99.10
26964;DHT22;14521;48.148;-1.656;2023-10-31T01:46:34;18.90;99.50
26964;DHT22;14521;48.148;-1.656;2023-10-31T01:49:56;18.90;99.20
26964;DHT22;14521;48.148;-1.656;2023-10-31T01:53:19;18.90;99.10
26964;DHT22;14521;48.148;-1.656;2023-10-31T01:56:42;18.90;99.10
26964;DHT22;14521;48.148;-1.656;2023-10-31T02:00:06;18.90;99.00
26964;DHT22;14521;48.148;-1.656;2023-10-31T02:03:34;18.90;99.00
26964;DHT22;14521;48.148;-1.656;2023-10-31T02:06:57;18.80;99.00
26964;DHT22;14521;48.148;-1.656;2023-10-31T02:10:19;18.90;99.00
26964;DHT22;14521;48.148;-1.656;2023-10-31T02:13:41;18.90;99.00
26964;DHT22;14521;48.148;-1.656;2023-10-31T02:17:03;18.90;98.90
26964;DHT22;14521;48.148;-1.656;2023-10-31T02:20:26;18.80;98.90
26964;DHT22;14521;48.148;-1.656;2023-10-31T02:23:58;18.90;98.90
26964;DHT22;14521;48.148;-1.656;2023-10-31T02:27:21;18.90;98.90
26964;DHT22;14521;48.148;-1.656;2023-10-31T02:30:43;18.80;98.90
26964;DHT22;14521;48.148;-1.656;2023-10-31T02:34:05;18.90;98.90
26964;DHT22;14521;48.148;-1.656;2023-10-31T02:37:28;18.80;98.90
26964;DHT22;14521;48.148;-1.656;2023-10-31T02:40:50;18.80;98.90
26964;DHT22;14521;48.148;-1.656;2023-10-31T02:44:14;18.80;98.90
26964;DHT22;14521;48.148;-1.656;2023-10-31T02:47:37;18.80;98.90
26964;DHT22;14521;48.148;-1.656;2023-10-31T02:50:59;18.80;98.90
26964;DHT22;14521;48.148;-1.656;2023-10-31T02:54:22;18.80;98.90
26964;DHT22;14521;48.148;-1.656;2023-10-31T02:57:44;18.80;98.80
26964;DHT22;14521;48.148;-1.656;2023-10-31T03:01:06;18.80;98.80
26964;DHT22;14521;48.148;-1.656;2023-10-31T03:04:29;18.80;98.80
26964;DHT22;14521;48.148;-1.656;2023-10-31T03:07:51;18.80;98.70
26964;DHT22;14521;48.148;-1.656;2023-10-31T03:11:22;18.80;98.70
26964;DHT22;14521;48.148;-1.656;2023-10-31T03:14:44;18.70;98.80
26964;DHT22;14521;48.148;-1.656;2023-10-31T03:18:06;18.80;98.70
26964;DHT22;14521;48.148;-1.656;2023-10-31T03:21:29;18.80;98.70
26964;DHT22;14521;48.148;-1.656;2023-10-31T03:24:51;18.80;98.60
26964;DHT22;14521;48.148;-1.656;2023-10-31T03:28:20;18.70;98.60
26964;DHT22;14521;48.148;-1.656;2023-10-31T03:31:45;18.80;98.60
26964;DHT22;14521;48.148;-1.656;2023-10-31T03:35:07;18.70;98.60
26964;DHT22;14521;48.148;-1.656;2023-10-31T03:38:29;18.70;98.60
26964;DHT22;14521;48.148;-1.656;2023-10-31T03:41:53;18.70;98.50
26964;DHT22;14521;48.148;-1.656;2023-10-31T03:45:19;18.70;98.60
26964;DHT22;14521;48.148;-1.656;2023-10-31T03:48:41;18.70;98.50
26964;DHT22;14521;48.148;-1.656;2023-10-31T03:52:04;18.70;98.50
26964;DHT22;14521;48.148;-1.656;2023-10-31T03:55:26;18.70;98.50
26964;DHT22;14521;48.148;-1.656;2023-10-31T03:58:48;18.70;98.50
26964;DHT22;14521;48.148;-1.656;2023-10-31T04:02:11;18.70;98.40
26964;DHT22;14521;48.148;-1.656;2023-10-31T04:05:34;18.70;98.50
26964;DHT22;14521;48.148;-1.656;2023-10-31T04:08:56;18.70;98.40
26964;DHT22;14521;48.148;-1.656;2023-10-31T04:12:18;18.70;98.40
26964;DHT22;14521;48.148;-1.656;2023-10-31T04:15:40;18.60;98.40
26964;DHT22;14521;48.148;-1.656;2023-10-31T04:19:03;18.70;98.40
26964;DHT22;14521;48.148;-1.656;2023-10-31T04:22:25;18.70;98.40
26964;DHT22;14521;48.148;-1.656;2023-10-31T04:25:47;18.70;98.40
26964;DHT22;14521;48.148;-1.656;2023-10-31T04:29:09;18.60;98.30
26964;DHT22;14521;48.148;-1.656;2023-10-31T04:32:32;18.70;98.30
26964;DHT22;14521;48.148;-1.656;2023-10-31T04:35:54;18.70;98.20
26964;DHT22;14521;48.148;-1.656;2023-10-31T04:39:16;18.60;98.30
26964;DHT22;14521;48.148;-1.656;2023-10-31T04:42:39;18.60;98.30
26964;DHT22;14521;48.148;-1.656;2023-10-31T04:46:03;18.60;98.30
26964;DHT22;14521;48.148;-1.656;2023-10-31T04:49:25;18.60;98.20
26964;DHT22;14521;48.148;-1.656;2023-10-31T04:52:47;18.60;98.10
26964;DHT22;14521;48.148;-1.656;2023-10-31T04:56:14;18.60;98.10
26964;DHT22;14521;48.148;-1.656;2023-10-31T04:59:36;18.60;98.10
26964;DHT22;14521;48.148;-1.656;2023-10-31T05:02:59;18.60;98.10
26964;DHT22;14521;48.148;-1.656;2023-10-31T05:06:23;18.60;98.10
26964;DHT22;14521;48.148;-1.656;2023-10-31T05:09:46;18.60;98.10
26964;DHT22;14521;48.148;-1.656;2023-10-31T05:13:08;18.60;98.00
26964;DHT22;14521;48.148;-1.656;2023-10-31T05:16:30;18.60;98.00
26964;DHT22;14521;48.148;-1.656;2023-10-31T05:19:53;18.60;97.90
26964;DHT22;14521;48.148;-1.656;2023-10-31T05:23:15;18.60;97.90
26964;DHT22;14521;48.148;-1.656;2023-10-31T05:26:39;18.60;97.80
26964;DHT22;14521;48.148;-1.656;2023-10-31T05:30:02;18.70;97.80
26964;DHT22;14521;48.148;-1.656;2023-10-31T05:33:24;18.70;97.70
26964;DHT22;14521;48.148;-1.656;2023-10-31T05:36:47;18.70;97.70
26964;DHT22;14521;48.148;-1.656;2023-10-31T05:40:10;18.70;98.00
26964;DHT22;14521;48.148;-1.656;2023-10-31T05:43:32;18.70;98.10
26964;DHT22;14521;48.148;-1.656;2023-10-31T05:46:55;18.80;98.20
26964;DHT22;14521;48.148;-1.656;2023-10-31T05:50:18;18.70;98.20
26964;DHT22;14521;48.148;-1.656;2023-10-31T05:53:41;18.80;98.10
26964;DHT22;14521;48.148;-1.656;2023-10-31T05:57:04;18.80;98.00
26964;DHT22;14521;48.148;-1.656;2023-10-31T06:00:26;18.80;97.90
26964;DHT22;14521;48.148;-1.656;2023-10-31T06:03:48;18.90;98.00
26964;DHT22;14521;48.148;-1.656;2023-10-31T06:07:11;18.90;97.90
26964;DHT22;14521;48.148;-1.656;2023-10-31T06:10:33;18.90;98.00
26964;DHT22;14521;48.148;-1.656;2023-10-31T06:13:56;18.90;98.00
26964;DHT22;14521;48.148;-1.656;2023-10-31T06:17:18;18.90;97.90
26964;DHT22;14521;48.148;-1.656;2023-10-31T06:20:41;18.90;97.90
26964;DHT22;14521;48.148;-1.656;2023-10-31T06:24:03;19.00;97.50
26964;DHT22;14521;48.148;-1.656;2023-10-31T06:27:26;19.00;97.40
26964;DHT22;14521;48.148;-1.656;2023-10-31T06:30:48;19.00;97.70
26964;DHT22;14521;48.148;-1.656;2023-10-31T06:34:10;19.00;97.50
26964;DHT22;14521;48.148;-1.656;2023-10-31T06:37:32;19.00;98.10
26964;DHT22;14521;48.148;-1.656;2023-10-31T06:40:55;19.00;97.70
26964;DHT22;14521;48.148;-1.656;2023-10-31T06:44:19;19.00;98.00
26964;DHT22;14521;48.148;-1.656;2023-10-31T06:47:41;19.00;97.90
26964;DHT22;14521;48.148;-1.656;2023-10-31T06:51:04;19.10;98.20
26964;DHT22;14521;48.148;-1.656;2023-10-31T06:54:26;19.10;98.20
26964;DHT22;14521;48.148;-1.656;2023-10-31T06:57:49;19.00;98.50
26964;DHT22;14521;48.148;-1.656;2023-10-31T07:01:11;18.80;99.00
26964;DHT22;14521;48.148;-1.656;2023-10-31T07:04:34;18.80;99.20
26964;DHT22;14521;48.148;-1.656;2023-10-31T07:07:57;18.80;99.40
26964;DHT22;14521;48.148;-1.656;2023-10-31T07:11:19;18.80;99.50
26964;DHT22;14521;48.148;-1.656;2023-10-31T07:14:41;18.80;99.60
26964;DHT22;14521;48.148;-1.656;2023-10-31T07:18:05;18.80;99.90
26964;DHT22;14521;48.148;-1.656;2023-10-31T07:21:29;19.00;99.60
26964;DHT22;14521;48.148;-1.656;2023-10-31T07:24:51;19.10;99.50
26964;DHT22;14521;48.148;-1.656;2023-10-31T07:28:14;19.10;99.40
26964;DHT22;14521;48.148;-1.656;2023-10-31T07:31:36;19.20;99.50
26964;DHT22;14521;48.148;-1.656;2023-10-31T07:35:00;19.20;99.10
26964;DHT22;14521;48.148;-1.656;2023-10-31T07:38:23;19.20;98.80
26964;DHT22;14521;48.148;-1.656;2023-10-31T07:41:45;19.20;98.60
26964;DHT22;14521;48.148;-1.656;2023-10-31T07:45:08;19.20;98.50
26964;DHT22;14521;48.148;-1.656;2023-10-31T07:48:31;19.20;98.50
26964;DHT22;14521;48.148;-1.656;2023-10-31T07:51:53;19.20;98.20
26964;DHT22;14521;48.148;-1.656;2023-10-31T07:55:16;19.20;98.00
26964;DHT22;14521;48.148;-1.656;2023-10-31T07:58:38;19.20;98.00
26964;DHT22;14521;48.148;-1.656;2023-10-31T08:02:00;19.20;97.80
26964;DHT22;14521;48.148;-1.656;2023-10-31T08:05:23;19.20;98.20
26964;DHT22;14521;48.148;-1.656;2023-10-31T08:08:45;19.10;98.30
26964;DHT22;14521;48.148;-1.656;2023-10-31T08:12:08;19.00;98.60
26964;DHT22;14521;48.148;-1.656;2023-10-31T08:15:30;19.10;98.40
26964;DHT22;14521;48.148;-1.656;2023-10-31T08:18:52;19.30;98.10
26964;DHT22;14521;48.148;-1.656;2023-10-31T08:22:14;19.40;97.90
26964;DHT22;14521;48.148;-1.656;2023-10-31T08:25:37;19.30;98.20
26964;DHT22;14521;48.148;-1.656;2023-10-31T08:28:59;19.40;97.60
26964;DHT22;14521;48.148;-1.656;2023-10-31T08:32:21;19.40;97.90
26964;DHT22;14521;48.148;-1.656;2023-10-31T08:35:46;19.40;97.70
26964;DHT22;14521;48.148;-1.656;2023-10-31T08:39:09;19.40;97.60
26964;DHT22;14521;48.148;-1.656;2023-10-31T08:42:33;19.40;97.50
26964;DHT22;14521;48.148;-1.656;2023-10-31T08:45:55;19.30;97.40
26964;DHT22;14521;48.148;-1.656;2023-10-31T08:49:18;19.30;97.60
26964;DHT22;14521;48.148;-1.656;2023-10-31T08:52:40;19.30;97.70
26964;DHT22;14521;48.148;-1.656;2023-10-31T08:56:03;19.40;97.70
26964;DHT22;14521;48.148;-1.656;2023-10-31T08:59:25;19.40;97.80
26964;DHT22;14521;48.148;-1.656;2023-10-31T09:02:48;19.40;97.80
26964;DHT22;14521;48.148;-1.656;2023-10-31T09:06:10;19.50;98.30
26964;DHT22;14521;48.148;-1.656;2023-10-31T09:09:32;19.70;97.90
26964;DHT22;14521;48.148;-1.656;2023-10-31T09:12:55;21.20;94.60
26964;DHT22;14521;48.148;-1.656;2023-10-31T09:16:17;21.90;92.40
26964;DHT22;14521;48.148;-1.656;2023-10-31T09:19:39;21.60;92.80
26964;DHT22;14521;48.148;-1.656;2023-10-31T09:23:02;21.30;93.50
26964;DHT22;14521;48.148;-1.656;2023-10-31T09:26:24;20.80;94.40
26964;DHT22;14521;48.148;-1.656;2023-10-31T09:29:46;20.50;95.10
26964;DHT22;14521;48.148;-1.656;2023-10-31T09:33:09;20.20;95.80
26964;DHT22;14521;48.148;-1.656;2023-10-31T09:36:32;20.00;96.40
26964;DHT22;14521;48.148;-1.656;2023-10-31T09:39:56;19.90;97.10
26964;DHT22;14521;48.148;-1.656;2023-10-31T09:43:18;19.80;97.10
26964;DHT22;14521;48.148;-1.656;2023-10-31T09:46:40;19.70;97.30
26964;DHT22;14521;48.148;-1.656;2023-10-31T09:50:04;19.70;97.40
26964;DHT22;14521;48.148;-1.656;2023-10-31T09:53:27;19.70;97.50
26964;DHT22;14521;48.148;-1.656;2023-10-31T09:56:50;19.70;97.50
26964;DHT22;14521;48.148;-1.656;2023-10-31T10:00:12;19.70;97.60
26964;DHT22;14521;48.148;-1.656;2023-10-31T10:03:35;19.60;97.70
26964;DHT22;14521;48.148;-1.656;2023-10-31T10:06:59;19.60;97.80
26964;DHT22;14521;48.148;-1.656;2023-10-31T10:10:22;19.60;97.70
26964;DHT22;14521;48.148;-1.656;2023-10-31T10:13:44;19.70;97.80
26964;DHT22;14521;48.148;-1.656;2023-10-31T10:17:23;19.70;97.70
26964;DHT22;14521;48.148;-1.656;2023-10-31T10:21:00;19.70;98.50
26964;DHT22;14521;48.148;-1.656;2023-10-31T10:24:23;19.50;99.40
26964;DHT22;14521;48.148;-1.656;2023-10-31T10:27:47;19.40;98.70
26964;DHT22;14521;48.148;-1.656;2023-10-31T10:31:14;19.40;98.60
26964;DHT22;14521;48.148;-1.656;2023-10-31T10:34:37;19.40;98.70
26964;DHT22;14521;48.148;-1.656;2023-10-31T10:38:00;19.40;99.00
26964;DHT22;14521;48.148;-1.656;2023-10-31T10:41:27;19.40;99.40
26964;DHT22;14521;48.148;-1.656;2023-10-31T10:44:52;19.40;99.00
26964;DHT22;14521;48.148;-1.656;2023-10-31T10:48:18;19.40;99.20
26964;DHT22;14521;48.148;-1.656;2023-10-31T10:55:45;19.40;99.40
26964;DHT22;14521;48.148;-1.656;2023-10-31T10:59:19;19.40;99.30
26964;DHT22;14521;48.148;-1.656;2023-10-31T11:02:43;19.30;99.40
26964;DHT22;14521;48.148;-1.656;2023-10-31T11:06:06;19.40;99.20
26964;DHT22;14521;48.148;-1.656;2023-10-31T11:09:30;19.30;99.60
26964;DHT22;14521;48.148;-1.656;2023-10-31T11:12:52;19.30;99.40
26964;DHT22;14521;48.148;-1.656;2023-10-31T11:16:33;19.30;99.60
26964;DHT22;14521;48.148;-1.656;2023-10-31T11:19:57;19.30;99.40
26964;DHT22;14521;48.148;-1.656;2023-10-31T11:23:20;19.30;99.40
26964;DHT22;14521;48.148;-1.656;2023-10-31T11:26:50;19.30;99.40
26964;DHT22;14521;48.148;-1.656;2023-10-31T11:30:28;19.30;99.50
26964;DHT22;14521;48.148;-1.656;2023-10-31T11:33:51;19.30;99.60
26964;DHT22;14521;48.148;-1.656;2023-10-31T11:37:25;19.30;99.50
26964;DHT22;14521;48.148;-1.656;2023-10-31T11:41:01;19.30;99.80
26964;DHT22;14521;48.148;-1.656;2023-10-31T11:44:28;19.30;99.90
26964;DHT22;14521;48.148;-1.656;2023-10-31T11:47:51;19.30;99.60
26964;DHT22;14521;48.148;-1.656;2023-10-31T11:51:13;19.30;99.80
26964;DHT22;14521;48.148;-1.656;2023-10-31T11:54:36;19.30;99.80
26964;DHT22;14521;48.148;-1.656;2023-10-31T11:57:58;19.30;99.70
26964;DHT22;14521;48.148;-1.656;2023-10-31T12:01:20;19.30;99.80
26964;DHT22;14521;48.148;-1.656;2023-10-31T12:04:43;19.30;99.60
26964;DHT22;14521;48.148;-1.656;2023-10-31T12:08:05;19.20;99.60
26964;DHT22;14521;48.148;-1.656;2023-10-31T12:11:27;19.30;99.70
26964;DHT22;14521;48.148;-1.656;2023-10-31T12:14:50;19.20;99.70
26964;DHT22;14521;48.148;-1.656;2023-10-31T12:18:12;19.20;99.70
26964;DHT22;14521;48.148;-1.656;2023-10-31T12:21:47;19.20;99.50
26964;DHT22;14521;48.148;-1.656;2023-10-31T12:25:11;19.20;99.70
26964;DHT22;14521;48.148;-1.656;2023-10-31T12:28:33;19.20;99.60
26964;DHT22;14521;48.148;-1.656;2023-10-31T12:31:56;19.20;99.60
26964;DHT22;14521;48.148;-1.656;2023-10-31T12:35:21;19.20;99.50
26964;DHT22;14521;48.148;-1.656;2023-10-31T12:38:46;19.20;99.50
26964;DHT22;14521;48.148;-1.656;2023-10-31T12:42:09;19.20;99.20
26964;DHT22;14521;48.148;-1.656;2023-10-31T12:45:31;19.30;99.70
26964;DHT22;14521;48.148;-1.656;2023-10-31T12:48:53;19.30;99.60
26964;DHT22;14521;48.148;-1.656;2023-10-31T12:52:16;19.30;99.60
26964;DHT22;14521;48.148;-1.656;2023-10-31T12:55:40;19.30;99.50
26964;DHT22;14521;48.148;-1.656;2023-10-31T12:59:02;19.30;99.50
26964;DHT22;14521;48.148;-1.656;2023-10-31T13:02:25;19.30;99.40
26964;DHT22;14521;48.148;-1.656;2023-10-31T13:05:47;19.30;99.40
26964;DHT22;14521;48.148;-1.656;2023-10-31T13:09:11;19.30;99.40
26964;DHT22;14521;48.148;-1.656;2023-10-31T13:12:34;19.30;99.40
26964;DHT22;14521;48.148;-1.656;2023-10-31T13:15:56;19.20;99.40
26964;DHT22;14521;48.148;-1.656;2023-10-31T13:19:19;19.30;99.40
26964;DHT22;14521;48.148;-1.656;2023-10-31T13:22:42;19.30;99.40
26964;DHT22;14521;48.148;-1.656;2023-10-31T13:26:04;19.30;99.30
26964;DHT22;14521;48.148;-1.656;2023-10-31T13:29:26;19.20;99.30
26964;DHT22;14521;48.148;-1.656;2023-10-31T13:32:49;19.20;99.30
26964;DHT22;14521;48.148;-1.656;2023-10-31T13:36:12;19.20;99.30
26964;DHT22;14521;48.148;-1.656;2023-10-31T13:39:34;19.20;99.20
26964;DHT22;14521;48.148;-1.656;2023-10-31T13:42:56;19.20;99.00
26964;DHT22;14521;48.148;-1.656;2023-10-31T13:46:18;19.20;99.10
26964;DHT22;14521;48.148;-1.656;2023-10-31T13:49:41;19.20;99.00
26964;DHT22;14521;48.148;-1.656;2023-10-31T13:53:03;19.20;98.90
26964;DHT22;14521;48.148;-1.656;2023-10-31T13:56:28;19.20;98.90
26964;DHT22;14521;48.148;-1.656;2023-10-31T13:59:50;19.20;98.90
26964;DHT22;14521;48.148;-1.656;2023-10-31T14:03:13;19.20;98.90
26964;DHT22;14521;48.148;-1.656;2023-10-31T14:06:37;19.20;98.90
26964;DHT22;14521;48.148;-1.656;2023-10-31T14:09:59;19.20;98.80
26964;DHT22;14521;48.148;-1.656;2023-10-31T14:13:21;19.20;98.90
26964;DHT22;14521;48.148;-1.656;2023-10-31T14:16:44;19.20;98.80
26964;DHT22;14521;48.148;-1.656;2023-10-31T14:20:07;19.20;98.90
26964;DHT22;14521;48.148;-1.656;2023-10-31T14:23:30;19.10;98.90
26964;DHT22;14521;48.148;-1.656;2023-10-31T14:26:53;19.20;99.00
26964;DHT22;14521;48.148;-1.656;2023-10-31T14:30:16;19.20;99.10
26964;DHT22;14521;48.148;-1.656;2023-10-31T14:33:38;19.20;99.10
26964;DHT22;14521;48.148;-1.656;2023-10-31T14:37:00;19.20;99.10
26964;DHT22;14521;48.148;-1.656;2023-10-31T14:40:23;19.20;99.20
26964;DHT22;14521;48.148;-1.656;2023-10-31T14:43:45;19.20;99.20
26964;DHT22;14521;48.148;-1.656;2023-10-31T14:47:07;19.20;99.30
26964;DHT22;14521;48.148;-1.656;2023-10-31T14:50:29;19.20;99.60
26964;DHT22;14521;48.148;-1.656;2023-10-31T14:53:51;19.20;99.40
26964;DHT22;14521;48.148;-1.656;2023-10-31T14:57:14;19.20;99.50
26964;DHT22;14521;48.148;-1.656;2023-10-31T15:00:37;19.20;99.50
26964;DHT22;14521;48.148;-1.656;2023-10-31T15:03:59;19.20;99.50
26964;DHT22;14521;48.148;-1.656;2023-10-31T15:07:22;19.20;99.40
26964;DHT22;14521;48.148;-1.656;2023-10-31T15:10:44;19.20;99.50
26964;DHT22;14521;48.148;-1.656;2023-10-31T15:14:07;19.20;99.50
26964;DHT22;14521;48.148;-1.656;2023-10-31T15:17:29;19.20;99.50
26964;DHT22;14521;48.148;-1.656;2023-10-31T15:20:51;19.20;99.40
26964;DHT22;14521;48.148;-1.656;2023-10-31T15:24:17;19.20;99.40
26964;DHT22;14521;48.148;-1.656;2023-10-31T15:27:39;19.20;99.30
26964;DHT22;14521;48.148;-1.656;2023-10-31T15:31:01;19.20;99.30
26964;DHT22;14521;48.148;-1.656;2023-10-31T15:34:24;19.20;99.40
26964;DHT22;14521;48.148;-1.656;2023-10-31T15:37:47;19.10;99.30
26964;DHT22;14521;48.148;-1.656;2023-10-31T15:41:09;19.20;99.30
26964;DHT22;14521;48.148;-1.656;2023-10-31T15:44:39;19.20;99.30
26964;DHT22;14521;48.148;-1.656;2023-10-31T15:48:01;19.20;99.20
26964;DHT22;14521;48.148;-1.656;2023-10-31T15:51:24;19.20;99.40
26964;DHT22;14521;48.148;-1.656;2023-10-31T15:54:46;19.20;99.70
26964;DHT22;14521;48.148;-1.656;2023-10-31T15:58:08;19.10;99.40
26964;DHT22;14521;48.148;-1.656;2023-10-31T16:01:31;19.20;99.40
26964;DHT22;14521;48.148;-1.656;2023-10-31T16:04:53;19.10;99.30
26964;DHT22;14521;48.148;-1.656;2023-10-31T16:08:15;19.10;99.40
26964;DHT22;14521;48.148;-1.656;2023-10-31T16:11:38;19.10;99.30
26964;DHT22;14521;48.148;-1.656;2023-10-31T16:15:01;19.10;99.30
26964;DHT22;14521;48.148;-1.656;2023-10-31T16:18:24;19.10;99.30
26964;DHT22;14521;48.148;-1.656;2023-10-31T16:21:47;19.10;99.30
26964;DHT22;14521;48.148;-1.656;2023-10-31T16:25:09;19.10;99.30
26964;DHT22;14521;48.148;-1.656;2023-10-31T16:28:32;19.10;99.30
26964;DHT22;14521;48.148;-1.656;2023-10-31T16:31:55;19.10;99.90
26964;DHT22;14521;48.148;-1.656;2023-10-31T16:35:17;19.10;99.70
26964;DHT22;14521;48.148;-1.656;2023-10-31T16:38:40;19.10;99.60
26964;DHT22;14521;48.148;-1.656;2023-10-31T16:42:02;19.10;99.50
26964;DHT22;14521;48.148;-1.656;2023-10-31T16:45:24;19.10;99.40
26964;DHT22;14521;48.148;-1.656;2023-10-31T16:48:47;19.10;99.40
26964;DHT22;14521;48.148;-1.656;2023-10-31T16:52:09;19.10;99.30
26964;DHT22;14521;48.148;-1.656;2023-10-31T16:55:33;19.10;99.40
26964;DHT22;14521;48.148;-1.656;2023-10-31T16:58:55;19.10;99.40
26964;DHT22;14521;48.148;-1.656;2023-10-31T17:02:17;19.10;99.40
26964;DHT22;14521;48.148;-1.656;2023-10-31T17:05:40;19.10;99.40
26964;DHT22;14521;48.148;-1.656;2023-10-31T17:09:03;19.10;99.90
26964;DHT22;14521;48.148;-1.656;2023-10-31T17:12:25;19.10;99.50
26964;DHT22;14521;48.148;-1.656;2023-10-31T17:15:48;19.10;99.40
26964;DHT22;14521;48.148;-1.656;2023-10-31T17:19:10;19.10;99.40
26964;DHT22;14521;48.148;-1.656;2023-10-31T17:22:33;19.10;99.40
26964;DHT22;14521;48.148;-1.656;2023-10-31T17:25:57;19.10;99.40
26964;DHT22;14521;48.148;-1.656;2023-10-31T17:29:20;19.10;99.60
26964;DHT22;14521;48.148;-1.656;2023-10-31T17:32:42;19.00;99.60
26964;DHT22;14521;48.148;-1.656;2023-10-31T17:36:07;19.00;99.90
26964;DHT22;14521;48.148;-1.656;2023-10-31T17:39:30;19.10;99.70
26964;DHT22;14521;48.148;-1.656;2023-10-31T17:42:53;19.10;99.70
26964;DHT22;14521;48.148;-1.656;2023-10-31T17:46:15;19.10;99.70
26964;DHT22;14521;48.148;-1.656;2023-10-31T17:49:37;19.10;99.90
26964;DHT22;14521;48.148;-1.656;2023-10-31T17:53:00;19.10;99.90
26964;DHT22;14521;48.148;-1.656;2023-10-31T17:56:23;19.10;99.90
26964;DHT22;14521;48.148;-1.656;2023-10-31T17:59:45;19.10;99.90
26964;DHT22;14521;48.148;-1.656;2023-10-31T18:03:08;19.20;99.90
26964;DHT22;14521;48.148;-1.656;2023-10-31T18:06:30;19.20;99.90
26964;DHT22;14521;48.148;-1.656;2023-10-31T18:09:53;19.30;99.90
26964;DHT22;14521;48.148;-1.656;2023-10-31T18:13:15;19.30;99.90
26964;DHT22;14521;48.148;-1.656;2023-10-31T18:16:37;19.30;99.90
26964;DHT22;14521;48.148;-1.656;2023-10-31T18:20:00;19.30;99.90
26964;DHT22;14521;48.148;-1.656;2023-10-31T18:23:22;19.30;99.90
26964;DHT22;14521;48.148;-1.656;2023-10-31T18:26:45;19.30;99.90
26964;DHT22;14521;48.148;-1.656;2023-10-31T18:30:07;19.40;99.90
26964;DHT22;14521;48.148;-1.656;2023-10-31T18:33:30;19.40;99.90
26964;DHT22;14521;48.148;-1.656;2023-10-31T18:36:56;19.40;99.90
26964;DHT22;14521;48.148;-1.656;2023-10-31T18:40:18;19.40;99.90
26964;DHT22;14521;48.148;-1.656;2023-10-31T18:43:41;19.40;99.90
26964;DHT22;14521;48.148;-1.656;2023-10-31T18:47:23;19.40;99.90
26964;DHT22;14521;48.148;-1.656;2023-10-31T18:50:48;19.40;99.90
26964;DHT22;14521;48.148;-1.656;2023-10-31T18:54:10;19.40;99.90
26964;DHT22;14521;48.148;-1.656;2023-10-31T18:57:33;19.40;99.90
26964;DHT22;14521;48.148;-1.656;2023-10-31T19:00:55;19.40;99.90
26964;DHT22;14521;48.148;-1.656;2023-10-31T19:04:18;19.40;99.90
26964;DHT22;14521;48.148;-1.656;2023-10-31T19:07:40;19.40;99.90
26964;DHT22;14521;48.148;-1.656;2023-10-31T19:11:03;19.40;99.90
26964;DHT22;14521;48.148;-1.656;2023-10-31T19:14:27;19.40;99.90
26964;DHT22;14521;48.148;-1.656;2023-10-31T19:17:52;19.30;99.90
26964;DHT22;14521;48.148;-1.656;2023-10-31T19:21:14;19.20;99.90
26964;DHT22;14521;48.148;-1.656;2023-10-31T19:24:38;19.10;99.90
26964;DHT22;14521;48.148;-1.656;2023-10-31T19:28:00;19.10;99.90
26964;DHT22;14521;48.148;-1.656;2023-10-31T19:31:23;19.10;99.90
26964;DHT22;14521;48.148;-1.656;2023-10-31T19:34:45;19.20;99.90
26964;DHT22;14521;48.148;-1.656;2023-10-31T19:38:08;19.30;99.90
26964;DHT22;14521;48.148;-1.656;2023-10-31T19:41:32;19.30;99.90
26964;DHT22;14521;48.148;-1.656;2023-10-31T19:44:54;19.30;99.90
26964;DHT22;14521;48.148;-1.656;2023-10-31T19:48:17;19.30;99.90
26964;DHT22;14521;48.148;-1.656;2023-10-31T19:51:39;19.20;99.90
26964;DHT22;14521;48.148;-1.656;2023-10-31T19:55:01;19.20;99.90
26964;DHT22;14521;48.148;-1.656;2023-10-31T19:58:24;19.20;99.90
26964;DHT22;14521;48.148;-1.656;2023-10-31T20:01:46;19.20;99.90
26964;DHT22;14521;48.148;-1.656;2023-10-31T20:05:09;19.20;99.90
26964;DHT22;14521;48.148;-1.656;2023-10-31T20:08:32;19.10;99.90
26964;DHT22;14521;48.148;-1.656;2023-10-31T20:11:54;19.00;99.90
26964;DHT22;14521;48.148;-1.656;2023-10-31T20:15:17;19.00;99.90
26964;DHT22;14521;48.148;-1.656;2023-10-31T20:18:39;19.00;99.90
26964;DHT22;14521;48.148;-1.656;2023-10-31T20:22:02;19.00;99.90
26964;DHT22;14521;48.148;-1.656;2023-10-31T20:25:24;19.00;99.90
26964;DHT22;14521;48.148;-1.656;2023-10-31T20:28:46;19.00;99.90
26964;DHT22;14521;48.148;-1.656;2023-10-31T20:32:09;19.00;99.90
26964;DHT22;14521;48.148;-1.656;2023-10-31T20:35:31;19.20;99.90
26964;DHT22;14521;48.148;-1.656;2023-10-31T20:38:55;19.20;99.90
26964;DHT22;14521;48.148;-1.656;2023-10-31T20:42:18;19.20;99.90
26964;DHT22;14521;48.148;-1.656;2023-10-31T20:45:40;19.20;99.90
26964;DHT22;14521;48.148;-1.656;2023-10-31T20:49:02;19.20;99.90
26964;DHT22;14521;48.148;-1.656;2023-10-31T20:52:28;19.30;99.90
26964;DHT22;14521;48.148;-1.656;2023-10-31T20:55:50;19.30;99.90
26964;DHT22;14521;48.148;-1.656;2023-10-31T20:59:13;19.30;99.90
26964;DHT22;14521;48.148;-1.656;2023-10-31T21:02:38;19.20;99.90
26964;DHT22;14521;48.148;-1.656;2023-10-31T21:06:00;19.20;99.90